sensor_id;sensor_type;location;lat;lon;timestamp;P1;durP1;ratioP1;P2;durP2;ratioP2
26690;SDS011;14307;51.718;8.938;2023-02-01T00:01:05;35.45;;;11.90;;
26690;SDS011;14307;51.718;8.938;2023-02-01T00:03:33;34.15;;;8.90;;
26690;SDS011;14307;51.718;8.938;2023-02-01T00:06:00;41.08;;;10.15;;
26690;SDS011;14307;51.718;8.938;2023-02-01T00:08:27;27.60;;;8.35;;
26690;SDS011;14307;51.718;8.938;2023-02-01T00:10:58;23.10;;;9.80;;
26690;SDS011;14307;51.718;8.938;2023-02-01T00:13:33;24.92;;;9.20;;
26690;SDS011;14307;51.718;8.938;2023-02-01T00:18:31;34.60;;;9.55;;
26690;SDS011;14307;51.718;8.938;2023-02-01T00:20:58;38.95;;;10.15;;
26690;SDS011;14307;51.718;8.938;2023-02-01T00:23:25;29.02;;;8.73;;
26690;SDS011;14307;51.718;8.938;2023-02-01T00:25:52;48.72;;;12.00;;
26690;SDS011;14307;51.718;8.938;2023-02-01T00:28:19;35.72;;;13.13;;
26690;SDS011;14307;51.718;8.938;2023-02-01T00:30:46;29.52;;;10.15;;
26690;SDS011;14307;51.718;8.938;2023-02-01T00:33:13;44.13;;;11.70;;
26690;SDS011;14307;51.718;8.938;2023-02-01T00:35:39;36.20;;;11.57;;
26690;SDS011;14307;51.718;8.938;2023-02-01T00:38:06;28.85;;;10.95;;
26690;SDS011;14307;51.718;8.938;2023-02-01T00:40:33;31.95;;;10.05;;
26690;SDS011;14307;51.718;8.938;2023-02-01T00:42:59;32.97;;;11.27;;
26690;SDS011;14307;51.718;8.938;2023-02-01T00:45:26;27.08;;;9.52;;
26690;SDS011;14307;51.718;8.938;2023-02-01T00:47:53;33.60;;;9.57;;
26690;SDS011;14307;51.718;8.938;2023-02-01T00:50:19;31.63;;;9.82;;
26690;SDS011;14307;51.718;8.938;2023-02-01T00:52:46;28.58;;;11.65;;
26690;SDS011;14307;51.718;8.938;2023-02-01T00:55:13;32.88;;;10.88;;
26690;SDS011;14307;51.718;8.938;2023-02-01T00:57:40;39.42;;;10.63;;
26690;SDS011;14307;51.718;8.938;2023-02-01T01:00:07;40.42;;;10.40;;
26690;SDS011;14307;51.718;8.938;2023-02-01T01:02:34;35.15;;;10.95;;
26690;SDS011;14307;51.718;8.938;2023-02-01T01:05:02;24.02;;;10.40;;
26690;SDS011;14307;51.718;8.938;2023-02-01T01:07:28;35.78;;;10.00;;
26690;SDS011;14307;51.718;8.938;2023-02-01T01:09:55;25.58;;;9.27;;
26690;SDS011;14307;51.718;8.938;2023-02-01T01:12:22;30.45;;;10.40;;
26690;SDS011;14307;51.718;8.938;2023-02-01T01:14:48;30.08;;;9.48;;
26690;SDS011;14307;51.718;8.938;2023-02-01T01:17:15;32.42;;;10.85;;
26690;SDS011;14307;51.718;8.938;2023-02-01T01:19:42;37.88;;;11.13;;
26690;SDS011;14307;51.718;8.938;2023-02-01T01:22:09;32.60;;;10.23;;
26690;SDS011;14307;51.718;8.938;2023-02-01T01:24:35;31.95;;;9.82;;
26690;SDS011;14307;51.718;8.938;2023-02-01T01:27:02;28.10;;;11.30;;
26690;SDS011;14307;51.718;8.938;2023-02-01T01:29:29;29.55;;;10.75;;
26690;SDS011;14307;51.718;8.938;2023-02-01T01:31:56;33.70;;;11.38;;
26690;SDS011;14307;51.718;8.938;2023-02-01T01:34:22;34.65;;;12.32;;
26690;SDS011;14307;51.718;8.938;2023-02-01T01:36:49;38.97;;;11.07;;
26690;SDS011;14307;51.718;8.938;2023-02-01T01:39:16;36.30;;;12.05;;
26690;SDS011;14307;51.718;8.938;2023-02-01T01:41:42;33.72;;;11.70;;
26690;SDS011;14307;51.718;8.938;2023-02-01T01:47:21;26.02;;;12.50;;
26690;SDS011;14307;51.718;8.938;2023-02-01T01:49:48;37.25;;;12.43;;
26690;SDS011;14307;51.718;8.938;2023-02-01T01:52:16;35.50;;;12.57;;
26690;SDS011;14307;51.718;8.938;2023-02-01T01:54:48;39.33;;;14.13;;
26690;SDS011;14307;51.718;8.938;2023-02-01T01:57:18;52.38;;;14.77;;
26690;SDS011;14307;51.718;8.938;2023-02-01T01:59:58;37.28;;;14.30;;
26690;SDS011;14307;51.718;8.938;2023-02-01T02:02:38;49.75;;;14.55;;
26690;SDS011;14307;51.718;8.938;2023-02-01T02:05:08;48.38;;;15.85;;
26690;SDS011;14307;51.718;8.938;2023-02-01T02:07:37;40.33;;;15.27;;
26690;SDS011;14307;51.718;8.938;2023-02-01T02:10:09;42.83;;;16.17;;
26690;SDS011;14307;51.718;8.938;2023-02-01T02:12:38;44.15;;;17.02;;
26690;SDS011;14307;51.718;8.938;2023-02-01T02:15:07;49.03;;;16.40;;
26690;SDS011;14307;51.718;8.938;2023-02-01T02:17:55;33.85;;;14.18;;
26690;SDS011;14307;51.718;8.938;2023-02-01T02:26:13;35.00;;;14.10;;
26690;SDS011;14307;51.718;8.938;2023-02-01T02:38:05;42.08;;;15.38;;
26690;SDS011;14307;51.718;8.938;2023-02-01T02:45:07;33.95;;;14.38;;
26690;SDS011;14307;51.718;8.938;2023-02-01T02:47:39;31.70;;;11.23;;
26690;SDS011;14307;51.718;8.938;2023-02-01T02:56:33;34.42;;;11.95;;
26690;SDS011;14307;51.718;8.938;2023-02-01T02:59:21;31.30;;;12.50;;
26690;SDS011;14307;51.718;8.938;2023-02-01T03:02:10;44.85;;;13.45;;
26690;SDS011;14307;51.718;8.938;2023-02-01T03:04:57;31.38;;;12.77;;
26690;SDS011;14307;51.718;8.938;2023-02-01T03:10:16;36.08;;;12.48;;
26690;SDS011;14307;51.718;8.938;2023-02-01T03:13:04;24.73;;;11.10;;
26690;SDS011;14307;51.718;8.938;2023-02-01T03:15:40;33.17;;;13.32;;
26690;SDS011;14307;51.718;8.938;2023-02-01T03:18:13;23.45;;;9.82;;
26690;SDS011;14307;51.718;8.938;2023-02-01T03:20:45;31.05;;;12.38;;
26690;SDS011;14307;51.718;8.938;2023-02-01T03:23:18;27.05;;;11.20;;
26690;SDS011;14307;51.718;8.938;2023-02-01T03:25:47;26.58;;;12.63;;
26690;SDS011;14307;51.718;8.938;2023-02-01T03:28:16;23.27;;;10.93;;
26690;SDS011;14307;51.718;8.938;2023-02-01T03:30:47;25.10;;;11.52;;
26690;SDS011;14307;51.718;8.938;2023-02-01T03:33:16;21.42;;;10.98;;
26690;SDS011;14307;51.718;8.938;2023-02-01T03:35:52;29.50;;;12.20;;
26690;SDS011;14307;51.718;8.938;2023-02-01T03:44:00;33.22;;;11.52;;
26690;SDS011;14307;51.718;8.938;2023-02-01T03:46:37;27.52;;;12.25;;
26690;SDS011;14307;51.718;8.938;2023-02-01T03:49:13;34.47;;;11.57;;
26690;SDS011;14307;51.718;8.938;2023-02-01T03:51:49;24.30;;;10.35;;
26690;SDS011;14307;51.718;8.938;2023-02-01T03:54:17;25.88;;;11.30;;
26690;SDS011;14307;51.718;8.938;2023-02-01T03:56:45;26.23;;;11.77;;
26690;SDS011;14307;51.718;8.938;2023-02-01T03:59:14;36.58;;;12.23;;
26690;SDS011;14307;51.718;8.938;2023-02-01T04:01:41;27.92;;;11.48;;
26690;SDS011;14307;51.718;8.938;2023-02-01T04:04:08;32.53;;;11.35;;
26690;SDS011;14307;51.718;8.938;2023-02-01T04:06:36;33.65;;;11.23;;
26690;SDS011;14307;51.718;8.938;2023-02-01T04:09:04;25.05;;;11.90;;
26690;SDS011;14307;51.718;8.938;2023-02-01T04:11:30;38.58;;;12.93;;
26690;SDS011;14307;51.718;8.938;2023-02-01T04:13:57;27.40;;;11.63;;
26690;SDS011;14307;51.718;8.938;2023-02-01T04:16:24;24.42;;;11.88;;
26690;SDS011;14307;51.718;8.938;2023-02-01T04:18:50;26.45;;;11.07;;
26690;SDS011;14307;51.718;8.938;2023-02-01T04:21:16;18.38;;;10.82;;
26690;SDS011;14307;51.718;8.938;2023-02-01T04:23:43;23.25;;;11.10;;
26690;SDS011;14307;51.718;8.938;2023-02-01T04:26:10;25.08;;;11.90;;
26690;SDS011;14307;51.718;8.938;2023-02-01T04:28:37;17.42;;;9.45;;
26690;SDS011;14307;51.718;8.938;2023-02-01T04:31:04;28.80;;;11.48;;
26690;SDS011;14307;51.718;8.938;2023-02-01T04:33:30;25.15;;;12.40;;
26690;SDS011;14307;51.718;8.938;2023-02-01T04:35:57;26.80;;;12.02;;
26690;SDS011;14307;51.718;8.938;2023-02-01T04:38:24;26.02;;;12.73;;
26690;SDS011;14307;51.718;8.938;2023-02-01T04:40:52;30.33;;;13.02;;
26690;SDS011;14307;51.718;8.938;2023-02-01T04:43:19;30.73;;;12.98;;
26690;SDS011;14307;51.718;8.938;2023-02-01T04:45:47;23.13;;;11.98;;
26690;SDS011;14307;51.718;8.938;2023-02-01T04:48:15;32.97;;;12.30;;
26690;SDS011;14307;51.718;8.938;2023-02-01T04:50:43;35.33;;;12.70;;
26690;SDS011;14307;51.718;8.938;2023-02-01T04:53:16;27.80;;;12.23;;
26690;SDS011;14307;51.718;8.938;2023-02-01T04:55:43;28.90;;;12.77;;
26690;SDS011;14307;51.718;8.938;2023-02-01T04:58:11;25.30;;;11.38;;
26690;SDS011;14307;51.718;8.938;2023-02-01T05:00:37;21.92;;;11.07;;
26690;SDS011;14307;51.718;8.938;2023-02-01T05:03:04;28.30;;;10.63;;
26690;SDS011;14307;51.718;8.938;2023-02-01T05:05:31;32.17;;;11.20;;
26690;SDS011;14307;51.718;8.938;2023-02-01T05:07:58;22.42;;;8.75;;
26690;SDS011;14307;51.718;8.938;2023-02-01T05:10:24;30.17;;;11.52;;
26690;SDS011;14307;51.718;8.938;2023-02-01T05:12:51;30.40;;;9.85;;
26690;SDS011;14307;51.718;8.938;2023-02-01T05:15:36;29.70;;;9.45;;
26690;SDS011;14307;51.718;8.938;2023-02-01T05:18:03;15.07;;;7.35;;
26690;SDS011;14307;51.718;8.938;2023-02-01T05:20:30;25.88;;;8.38;;
26690;SDS011;14307;51.718;8.938;2023-02-01T05:22:56;30.38;;;9.65;;
26690;SDS011;14307;51.718;8.938;2023-02-01T05:25:23;23.55;;;7.93;;
26690;SDS011;14307;51.718;8.938;2023-02-01T05:27:50;28.55;;;7.55;;
26690;SDS011;14307;51.718;8.938;2023-02-01T05:30:17;19.13;;;7.70;;
26690;SDS011;14307;51.718;8.938;2023-02-01T05:32:44;20.88;;;7.25;;
26690;SDS011;14307;51.718;8.938;2023-02-01T05:35:11;20.08;;;7.03;;
26690;SDS011;14307;51.718;8.938;2023-02-01T05:37:37;30.02;;;8.75;;
26690;SDS011;14307;51.718;8.938;2023-02-01T05:40:04;31.52;;;8.52;;
26690;SDS011;14307;51.718;8.938;2023-02-01T05:42:31;29.65;;;7.60;;
26690;SDS011;14307;51.718;8.938;2023-02-01T05:44:58;27.75;;;6.82;;
26690;SDS011;14307;51.718;8.938;2023-02-01T05:47:25;26.63;;;8.13;;
26690;SDS011;14307;51.718;8.938;2023-02-01T05:49:52;26.48;;;7.15;;
26690;SDS011;14307;51.718;8.938;2023-02-01T05:52:18;29.65;;;6.90;;
26690;SDS011;14307;51.718;8.938;2023-02-01T05:54:46;30.85;;;7.95;;
26690;SDS011;14307;51.718;8.938;2023-02-01T05:57:16;23.98;;;7.47;;
26690;SDS011;14307;51.718;8.938;2023-02-01T05:59:43;27.67;;;7.35;;
26690;SDS011;14307;51.718;8.938;2023-02-01T06:02:11;21.60;;;6.40;;
26690;SDS011;14307;51.718;8.938;2023-02-01T06:04:38;26.02;;;6.15;;
26690;SDS011;14307;51.718;8.938;2023-02-01T06:07:05;26.00;;;6.30;;
26690;SDS011;14307;51.718;8.938;2023-02-01T06:09:34;33.85;;;8.07;;
26690;SDS011;14307;51.718;8.938;2023-02-01T06:12:02;27.05;;;8.55;;
26690;SDS011;14307;51.718;8.938;2023-02-01T06:14:29;23.42;;;6.95;;
26690;SDS011;14307;51.718;8.938;2023-02-01T06:16:56;19.10;;;6.45;;
26690;SDS011;14307;51.718;8.938;2023-02-01T06:19:22;38.35;;;7.70;;
26690;SDS011;14307;51.718;8.938;2023-02-01T06:21:49;27.60;;;7.88;;
26690;SDS011;14307;51.718;8.938;2023-02-01T06:24:16;17.50;;;6.80;;
26690;SDS011;14307;51.718;8.938;2023-02-01T06:26:43;23.40;;;7.13;;
26690;SDS011;14307;51.718;8.938;2023-02-01T06:29:10;26.30;;;7.57;;
26690;SDS011;14307;51.718;8.938;2023-02-01T06:31:37;29.52;;;7.18;;
26690;SDS011;14307;51.718;8.938;2023-02-01T06:34:04;19.63;;;7.53;;
26690;SDS011;14307;51.718;8.938;2023-02-01T06:36:31;32.45;;;9.25;;
26690;SDS011;14307;51.718;8.938;2023-02-01T06:38:58;29.98;;;8.35;;
26690;SDS011;14307;51.718;8.938;2023-02-01T06:41:26;27.58;;;8.05;;
26690;SDS011;14307;51.718;8.938;2023-02-01T06:43:54;22.77;;;7.43;;
26690;SDS011;14307;51.718;8.938;2023-02-01T06:46:22;27.25;;;9.45;;
26690;SDS011;14307;51.718;8.938;2023-02-01T06:48:48;30.45;;;8.90;;
26690;SDS011;14307;51.718;8.938;2023-02-01T06:51:21;33.92;;;8.75;;
26690;SDS011;14307;51.718;8.938;2023-02-01T06:53:51;29.25;;;8.25;;
26690;SDS011;14307;51.718;8.938;2023-02-01T06:56:18;25.88;;;7.00;;
26690;SDS011;14307;51.718;8.938;2023-02-01T06:58:46;17.75;;;7.78;;
26690;SDS011;14307;51.718;8.938;2023-02-01T07:01:13;30.38;;;7.75;;
26690;SDS011;14307;51.718;8.938;2023-02-01T07:03:40;15.10;;;7.15;;
26690;SDS011;14307;51.718;8.938;2023-02-01T07:06:08;28.35;;;9.07;;
26690;SDS011;14307;51.718;8.938;2023-02-01T07:08:36;24.15;;;8.70;;
26690;SDS011;14307;51.718;8.938;2023-02-01T07:11:04;28.10;;;7.32;;
26690;SDS011;14307;51.718;8.938;2023-02-01T07:13:32;22.60;;;7.03;;
26690;SDS011;14307;51.718;8.938;2023-02-01T07:16:00;19.67;;;6.30;;
26690;SDS011;14307;51.718;8.938;2023-02-01T07:18:29;22.20;;;6.45;;
26690;SDS011;14307;51.718;8.938;2023-02-01T07:20:57;27.33;;;7.97;;
26690;SDS011;14307;51.718;8.938;2023-02-01T07:23:24;32.65;;;9.05;;
26690;SDS011;14307;51.718;8.938;2023-02-01T07:25:55;22.20;;;7.53;;
26690;SDS011;14307;51.718;8.938;2023-02-01T07:28:24;22.38;;;8.43;;
26690;SDS011;14307;51.718;8.938;2023-02-01T07:30:51;19.38;;;7.70;;
26690;SDS011;14307;51.718;8.938;2023-02-01T07:33:19;21.50;;;7.57;;
26690;SDS011;14307;51.718;8.938;2023-02-01T07:35:47;27.85;;;7.78;;
26690;SDS011;14307;51.718;8.938;2023-02-01T07:38:15;27.00;;;8.25;;
26690;SDS011;14307;51.718;8.938;2023-02-01T07:40:43;19.45;;;9.43;;
26690;SDS011;14307;51.718;8.938;2023-02-01T07:43:10;25.63;;;9.98;;
26690;SDS011;14307;51.718;8.938;2023-02-01T07:45:36;23.20;;;9.60;;
26690;SDS011;14307;51.718;8.938;2023-02-01T07:48:03;42.55;;;10.20;;
26690;SDS011;14307;51.718;8.938;2023-02-01T07:50:30;26.48;;;8.70;;
26690;SDS011;14307;51.718;8.938;2023-02-01T07:53:00;25.42;;;7.70;;
26690;SDS011;14307;51.718;8.938;2023-02-01T07:55:27;23.70;;;9.35;;
26690;SDS011;14307;51.718;8.938;2023-02-01T07:57:58;26.67;;;9.32;;
26690;SDS011;14307;51.718;8.938;2023-02-01T08:00:25;24.75;;;9.27;;
26690;SDS011;14307;51.718;8.938;2023-02-01T08:03:11;18.48;;;10.15;;
26690;SDS011;14307;51.718;8.938;2023-02-01T08:05:38;25.98;;;9.40;;
26690;SDS011;14307;51.718;8.938;2023-02-01T08:08:05;22.15;;;9.50;;
26690;SDS011;14307;51.718;8.938;2023-02-01T08:10:32;18.48;;;9.23;;
26690;SDS011;14307;51.718;8.938;2023-02-01T08:13:01;22.85;;;9.50;;
26690;SDS011;14307;51.718;8.938;2023-02-01T08:15:28;19.63;;;9.88;;
26690;SDS011;14307;51.718;8.938;2023-02-01T08:17:55;18.70;;;9.70;;
26690;SDS011;14307;51.718;8.938;2023-02-01T08:20:23;26.35;;;10.48;;
26690;SDS011;14307;51.718;8.938;2023-02-01T08:22:52;28.55;;;9.50;;
26690;SDS011;14307;51.718;8.938;2023-02-01T08:25:20;15.30;;;8.90;;
26690;SDS011;14307;51.718;8.938;2023-02-01T08:27:47;24.52;;;9.43;;
26690;SDS011;14307;51.718;8.938;2023-02-01T08:30:14;25.38;;;10.43;;
26690;SDS011;14307;51.718;8.938;2023-02-01T08:32:41;18.13;;;9.60;;
26690;SDS011;14307;51.718;8.938;2023-02-01T08:35:07;26.92;;;11.57;;
26690;SDS011;14307;51.718;8.938;2023-02-01T08:37:35;27.38;;;12.10;;
26690;SDS011;14307;51.718;8.938;2023-02-01T08:40:03;28.77;;;10.48;;
26690;SDS011;14307;51.718;8.938;2023-02-01T08:42:30;24.27;;;10.52;;
26690;SDS011;14307;51.718;8.938;2023-02-01T08:45:16;24.45;;;10.50;;
26690;SDS011;14307;51.718;8.938;2023-02-01T08:47:47;31.02;;;11.20;;
26690;SDS011;14307;51.718;8.938;2023-02-01T08:50:14;31.77;;;10.18;;
26690;SDS011;14307;51.718;8.938;2023-02-01T08:52:41;34.25;;;11.02;;
26690;SDS011;14307;51.718;8.938;2023-02-01T08:55:08;30.42;;;11.88;;
26690;SDS011;14307;51.718;8.938;2023-02-01T08:57:38;28.42;;;10.45;;
26690;SDS011;14307;51.718;8.938;2023-02-01T09:00:06;29.48;;;12.48;;
26690;SDS011;14307;51.718;8.938;2023-02-01T09:02:36;29.85;;;10.50;;
26690;SDS011;14307;51.718;8.938;2023-02-01T09:05:03;36.10;;;13.40;;
26690;SDS011;14307;51.718;8.938;2023-02-01T09:07:31;32.15;;;12.65;;
26690;SDS011;14307;51.718;8.938;2023-02-01T09:09:59;39.55;;;12.15;;
26690;SDS011;14307;51.718;8.938;2023-02-01T09:12:28;18.45;;;10.38;;
26690;SDS011;14307;51.718;8.938;2023-02-01T09:14:57;23.45;;;11.82;;
26690;SDS011;14307;51.718;8.938;2023-02-01T09:17:26;23.40;;;10.90;;
26690;SDS011;14307;51.718;8.938;2023-02-01T09:19:54;34.90;;;13.55;;
26690;SDS011;14307;51.718;8.938;2023-02-01T09:22:21;21.27;;;10.93;;
26690;SDS011;14307;51.718;8.938;2023-02-01T09:24:48;29.70;;;11.98;;
26690;SDS011;14307;51.718;8.938;2023-02-01T09:27:15;33.22;;;11.45;;
26690;SDS011;14307;51.718;8.938;2023-02-01T09:29:41;20.35;;;10.25;;
26690;SDS011;14307;51.718;8.938;2023-02-01T09:32:09;16.67;;;10.05;;
26690;SDS011;14307;51.718;8.938;2023-02-01T09:34:36;36.50;;;13.68;;
26690;SDS011;14307;51.718;8.938;2023-02-01T09:37:03;32.45;;;12.32;;
26690;SDS011;14307;51.718;8.938;2023-02-01T09:39:30;27.33;;;13.32;;
26690;SDS011;14307;51.718;8.938;2023-02-01T09:42:03;31.90;;;14.23;;
26690;SDS011;14307;51.718;8.938;2023-02-01T09:47:36;32.92;;;15.15;;
26690;SDS011;14307;51.718;8.938;2023-02-01T09:52:44;23.02;;;16.20;;
26690;SDS011;14307;51.718;8.938;2023-02-01T09:55:19;26.75;;;14.98;;
26690;SDS011;14307;51.718;8.938;2023-02-01T09:58:01;27.42;;;14.57;;
26690;SDS011;14307;51.718;8.938;2023-02-01T10:00:38;26.70;;;15.73;;
26690;SDS011;14307;51.718;8.938;2023-02-01T10:03:05;33.92;;;16.52;;
26690;SDS011;14307;51.718;8.938;2023-02-01T10:08:12;29.88;;;14.95;;
26690;SDS011;14307;51.718;8.938;2023-02-01T10:10:52;34.47;;;16.75;;
26690;SDS011;14307;51.718;8.938;2023-02-01T10:16:00;36.95;;;17.83;;
26690;SDS011;14307;51.718;8.938;2023-02-01T10:18:47;34.17;;;19.55;;
26690;SDS011;14307;51.718;8.938;2023-02-01T10:27:33;42.20;;;18.48;;
26690;SDS011;14307;51.718;8.938;2023-02-01T10:33:15;44.78;;;18.38;;
26690;SDS011;14307;51.718;8.938;2023-02-01T10:35:52;34.05;;;18.00;;
26690;SDS011;14307;51.718;8.938;2023-02-01T10:38:40;34.33;;;17.55;;
26690;SDS011;14307;51.718;8.938;2023-02-01T10:41:13;32.53;;;17.27;;
26690;SDS011;14307;51.718;8.938;2023-02-01T10:43:51;35.25;;;17.08;;
26690;SDS011;14307;51.718;8.938;2023-02-01T10:46:24;34.97;;;18.27;;
26690;SDS011;14307;51.718;8.938;2023-02-01T10:48:52;30.52;;;17.00;;
26690;SDS011;14307;51.718;8.938;2023-02-01T10:51:29;40.15;;;18.63;;
26690;SDS011;14307;51.718;8.938;2023-02-01T10:54:11;33.10;;;17.65;;
26690;SDS011;14307;51.718;8.938;2023-02-01T10:56:46;43.47;;;20.45;;
26690;SDS011;14307;51.718;8.938;2023-02-01T10:59:23;33.92;;;18.83;;
26690;SDS011;14307;51.718;8.938;2023-02-01T11:01:57;31.90;;;18.55;;
26690;SDS011;14307;51.718;8.938;2023-02-01T11:04:26;33.38;;;19.17;;
26690;SDS011;14307;51.718;8.938;2023-02-01T11:07:12;31.52;;;18.23;;
26690;SDS011;14307;51.718;8.938;2023-02-01T11:09:49;30.92;;;19.65;;
26690;SDS011;14307;51.718;8.938;2023-02-01T11:12:30;35.38;;;19.70;;
26690;SDS011;14307;51.718;8.938;2023-02-01T11:15:01;32.83;;;19.67;;
26690;SDS011;14307;51.718;8.938;2023-02-01T11:17:45;31.75;;;19.13;;
26690;SDS011;14307;51.718;8.938;2023-02-01T11:20:16;38.30;;;19.50;;
26690;SDS011;14307;51.718;8.938;2023-02-01T11:22:54;36.80;;;20.63;;
26690;SDS011;14307;51.718;8.938;2023-02-01T11:25:22;28.90;;;20.73;;
26690;SDS011;14307;51.718;8.938;2023-02-01T11:27:51;33.70;;;19.60;;
26690;SDS011;14307;51.718;8.938;2023-02-01T11:30:31;27.45;;;20.10;;
26690;SDS011;14307;51.718;8.938;2023-02-01T11:33:01;27.83;;;20.48;;
26690;SDS011;14307;51.718;8.938;2023-02-01T11:35:31;35.35;;;21.02;;
26690;SDS011;14307;51.718;8.938;2023-02-01T11:38:00;34.60;;;21.05;;
26690;SDS011;14307;51.718;8.938;2023-02-01T11:40:37;34.25;;;20.27;;
26690;SDS011;14307;51.718;8.938;2023-02-01T11:45:55;23.40;;;19.02;;
26690;SDS011;14307;51.718;8.938;2023-02-01T11:56:59;30.70;;;21.50;;
26690;SDS011;14307;51.718;8.938;2023-02-01T12:00:01;34.42;;;22.08;;
26690;SDS011;14307;51.718;8.938;2023-02-01T12:03:08;41.00;;;21.00;;
26690;SDS011;14307;51.718;8.938;2023-02-01T12:05:46;34.35;;;23.58;;
26690;SDS011;14307;51.718;8.938;2023-02-01T12:16:29;36.80;;;25.73;;
26690;SDS011;14307;51.718;8.938;2023-02-01T12:19:17;44.97;;;24.73;;
26690;SDS011;14307;51.718;8.938;2023-02-01T12:21:54;37.97;;;24.88;;
26690;SDS011;14307;51.718;8.938;2023-02-01T12:24:50;33.92;;;22.98;;
26690;SDS011;14307;51.718;8.938;2023-02-01T12:27:45;32.45;;;19.13;;
26690;SDS011;14307;51.718;8.938;2023-02-01T12:36:12;35.20;;;16.73;;
26690;SDS011;14307;51.718;8.938;2023-02-01T12:39:04;34.03;;;16.52;;
26690;SDS011;14307;51.718;8.938;2023-02-01T12:41:58;29.40;;;15.50;;
26690;SDS011;14307;51.718;8.938;2023-02-01T12:47:24;30.52;;;14.25;;
26690;SDS011;14307;51.718;8.938;2023-02-01T12:52:49;45.42;;;19.13;;
26690;SDS011;14307;51.718;8.938;2023-02-01T12:55:24;30.08;;;14.05;;
26690;SDS011;14307;51.718;8.938;2023-02-01T12:58:13;47.55;;;17.52;;
26690;SDS011;14307;51.718;8.938;2023-02-01T13:01:00;43.47;;;19.63;;
26690;SDS011;14307;51.718;8.938;2023-02-01T13:03:36;46.35;;;19.95;;
26690;SDS011;14307;51.718;8.938;2023-02-01T13:06:19;33.90;;;16.25;;
26690;SDS011;14307;51.718;8.938;2023-02-01T13:16:49;47.42;;;19.15;;
26690;SDS011;14307;51.718;8.938;2023-02-01T13:19:24;36.50;;;16.38;;
26690;SDS011;14307;51.718;8.938;2023-02-01T13:22:16;40.58;;;17.05;;
26690;SDS011;14307;51.718;8.938;2023-02-01T13:24:53;31.23;;;17.35;;
26690;SDS011;14307;51.718;8.938;2023-02-01T13:27:26;38.13;;;17.85;;
26690;SDS011;14307;51.718;8.938;2023-02-01T13:29:57;30.85;;;15.10;;
26690;SDS011;14307;51.718;8.938;2023-02-01T13:32:32;45.40;;;21.20;;
26690;SDS011;14307;51.718;8.938;2023-02-01T13:35:50;38.58;;;20.05;;
26690;SDS011;14307;51.718;8.938;2023-02-01T13:41:13;45.55;;;21.17;;
26690;SDS011;14307;51.718;8.938;2023-02-01T13:43:54;49.63;;;21.10;;
26690;SDS011;14307;51.718;8.938;2023-02-01T13:46:25;46.42;;;20.35;;
26690;SDS011;14307;51.718;8.938;2023-02-01T13:48:54;61.25;;;21.92;;
26690;SDS011;14307;51.718;8.938;2023-02-01T13:57:01;41.28;;;20.40;;
26690;SDS011;14307;51.718;8.938;2023-02-01T14:05:10;34.63;;;17.38;;
26690;SDS011;14307;51.718;8.938;2023-02-01T14:13:30;40.22;;;19.30;;
26690;SDS011;14307;51.718;8.938;2023-02-01T14:24:22;37.78;;;15.98;;
26690;SDS011;14307;51.718;8.938;2023-02-01T14:26:52;51.03;;;19.60;;
26690;SDS011;14307;51.718;8.938;2023-02-01T14:52:49;55.60;;;16.25;;
26690;SDS011;14307;51.718;8.938;2023-02-01T14:55:25;26.15;;;12.60;;
26690;SDS011;14307;51.718;8.938;2023-02-01T14:58:14;37.58;;;12.95;;
26690;SDS011;14307;51.718;8.938;2023-02-01T15:06:41;26.92;;;9.90;;
26690;SDS011;14307;51.718;8.938;2023-02-01T15:17:24;20.98;;;6.88;;
26690;SDS011;14307;51.718;8.938;2023-02-01T15:20:04;18.90;;;7.15;;
26690;SDS011;14307;51.718;8.938;2023-02-01T15:22:52;30.13;;;7.45;;
26690;SDS011;14307;51.718;8.938;2023-02-01T15:25:26;31.02;;;8.10;;
26690;SDS011;14307;51.718;8.938;2023-02-01T15:27:54;28.63;;;7.60;;
26690;SDS011;14307;51.718;8.938;2023-02-01T15:38:34;10.30;;;3.00;;
26690;SDS011;14307;51.718;8.938;2023-02-01T15:41:03;6.18;;;2.05;;
26690;SDS011;14307;51.718;8.938;2023-02-01T15:43:36;5.75;;;2.08;;
26690;SDS011;14307;51.718;8.938;2023-02-01T15:46:49;9.50;;;3.30;;
26690;SDS011;14307;51.718;8.938;2023-02-01T15:48:55;8.57;;;2.42;;
26690;SDS011;14307;51.718;8.938;2023-02-01T15:51:23;9.35;;;3.15;;
26690;SDS011;14307;51.718;8.938;2023-02-01T15:53:58;11.55;;;3.72;;
26690;SDS011;14307;51.718;8.938;2023-02-01T15:56:29;10.25;;;4.68;;
26690;SDS011;14307;51.718;8.938;2023-02-01T15:59:02;15.68;;;4.20;;
26690;SDS011;14307;51.718;8.938;2023-02-01T16:01:36;12.45;;;4.53;;
26690;SDS011;14307;51.718;8.938;2023-02-01T16:06:46;15.38;;;5.65;;
26690;SDS011;14307;51.718;8.938;2023-02-01T16:09:22;18.70;;;6.13;;
26690;SDS011;14307;51.718;8.938;2023-02-01T16:11:55;13.45;;;4.82;;
26690;SDS011;14307;51.718;8.938;2023-02-01T16:14:22;19.50;;;5.85;;
26690;SDS011;14307;51.718;8.938;2023-02-01T16:16:49;18.58;;;5.93;;
26690;SDS011;14307;51.718;8.938;2023-02-01T16:19:16;26.25;;;6.78;;
26690;SDS011;14307;51.718;8.938;2023-02-01T16:21:43;22.15;;;8.30;;
26690;SDS011;14307;51.718;8.938;2023-02-01T16:24:10;25.45;;;7.30;;
26690;SDS011;14307;51.718;8.938;2023-02-01T16:26:38;19.92;;;6.18;;
26690;SDS011;14307;51.718;8.938;2023-02-01T16:29:05;15.27;;;7.35;;
26690;SDS011;14307;51.718;8.938;2023-02-01T16:31:34;13.40;;;5.78;;
26690;SDS011;14307;51.718;8.938;2023-02-01T16:34:03;22.55;;;8.85;;
26690;SDS011;14307;51.718;8.938;2023-02-01T16:36:32;19.58;;;8.77;;
26690;SDS011;14307;51.718;8.938;2023-02-01T16:38:59;28.10;;;9.23;;
26690;SDS011;14307;51.718;8.938;2023-02-01T16:41:26;23.50;;;10.02;;
26690;SDS011;14307;51.718;8.938;2023-02-01T16:43:54;26.20;;;9.80;;
26690;SDS011;14307;51.718;8.938;2023-02-01T16:46:22;22.30;;;9.38;;
26690;SDS011;14307;51.718;8.938;2023-02-01T16:48:53;28.73;;;9.88;;
26690;SDS011;14307;51.718;8.938;2023-02-01T16:51:22;21.17;;;7.72;;
26690;SDS011;14307;51.718;8.938;2023-02-01T16:53:51;18.85;;;6.45;;
26690;SDS011;14307;51.718;8.938;2023-02-01T16:58:48;23.92;;;6.90;;
26690;SDS011;14307;51.718;8.938;2023-02-01T17:01:16;14.75;;;5.75;;
26690;SDS011;14307;51.718;8.938;2023-02-01T17:03:44;13.30;;;4.57;;
26690;SDS011;14307;51.718;8.938;2023-02-01T17:06:16;19.88;;;4.15;;
26690;SDS011;14307;51.718;8.938;2023-02-01T17:08:47;15.10;;;4.97;;
26690;SDS011;14307;51.718;8.938;2023-02-01T17:11:16;18.75;;;4.40;;
26690;SDS011;14307;51.718;8.938;2023-02-01T17:13:43;19.50;;;7.15;;
26690;SDS011;14307;51.718;8.938;2023-02-01T17:18:40;14.18;;;4.65;;
26690;SDS011;14307;51.718;8.938;2023-02-01T17:21:08;17.30;;;5.90;;
26690;SDS011;14307;51.718;8.938;2023-02-01T17:23:36;15.95;;;5.43;;
26690;SDS011;14307;51.718;8.938;2023-02-01T17:26:03;23.30;;;4.15;;
26690;SDS011;14307;51.718;8.938;2023-02-01T17:28:30;11.73;;;3.67;;
26690;SDS011;14307;51.718;8.938;2023-02-01T17:30:56;12.30;;;3.45;;
26690;SDS011;14307;51.718;8.938;2023-02-01T17:33:31;13.77;;;3.90;;
26690;SDS011;14307;51.718;8.938;2023-02-01T17:36:02;15.68;;;4.10;;
26690;SDS011;14307;51.718;8.938;2023-02-01T17:38:32;15.68;;;4.85;;
26690;SDS011;14307;51.718;8.938;2023-02-01T17:40:59;10.30;;;3.92;;
26690;SDS011;14307;51.718;8.938;2023-02-01T17:43:26;13.40;;;4.18;;
26690;SDS011;14307;51.718;8.938;2023-02-01T17:45:54;14.73;;;4.45;;
26690;SDS011;14307;51.718;8.938;2023-02-01T17:48:41;14.13;;;4.63;;